createdAt,value
2023-03-17T00:01:27.698Z,100147.19
2023-03-17T00:03:55.384Z,100148.19
2023-03-17T00:06:24.791Z,100151.20
2023-03-17T00:08:52.349Z,100151.56
2023-03-17T00:11:20.011Z,100150.40
2023-03-17T00:13:47.675Z,100148.77
2023-03-17T00:16:15.900Z,100144.51
2023-03-17T00:18:43.625Z,100141.48
2023-03-17T00:21:12.208Z,100140.66
2023-03-17T00:23:39.865Z,100135.33
2023-03-17T00:26:07.523Z,100134.25
2023-03-17T00:28:35.183Z,100137.22
2023-03-17T00:31:03.506Z,100132.27
2023-03-17T00:33:33.250Z,100135.48
2023-03-17T00:36:01.573Z,100134.52
2023-03-17T00:38:29.929Z,100138.23
2023-03-17T00:40:57.585Z,100137.11
2023-03-17T00:43:25.447Z,100143.13
2023-03-17T00:45:53.113Z,100143.71
2023-03-17T00:48:20.974Z,100148.54
2023-03-17T00:50:48.841Z,100148.20
2023-03-17T00:53:16.910Z,100149.42
2023-03-17T00:55:44.779Z,100150.31
2023-03-17T00:58:12.645Z,100151.13
2023-03-17T01:00:40.352Z,100154.44
2023-03-17T01:03:08.173Z,100151.88
2023-03-17T01:05:35.765Z,100155.62
2023-03-17T01:08:03.905Z,100156.65
2023-03-17T01:10:31.994Z,100158.90
2023-03-17T01:12:59.950Z,100162.25
2023-03-17T01:15:27.606Z,100161.70
2023-03-17T01:17:55.920Z,100163.56
2023-03-17T01:20:23.797Z,100163.55
2023-03-17T01:22:51.612Z,100164.55
2023-03-17T01:25:19.215Z,100162.29
2023-03-17T01:27:46.840Z,100154.54
2023-03-17T01:30:14.911Z,100153.08
2023-03-17T01:32:42.805Z,100145.77
2023-03-17T01:35:10.537Z,100149.14
2023-03-17T01:37:38.616Z,100146.25
2023-03-17T01:40:06.275Z,100139.11
2023-03-17T01:42:34.248Z,100137.55
2023-03-17T01:45:01.903Z,100137.09
2023-03-17T01:47:32.634Z,100138.08
2023-03-17T01:50:00.808Z,100140.42
2023-03-17T01:52:28.993Z,100141.59
2023-03-17T01:54:56.853Z,100138.50
2023-03-17T01:57:24.510Z,100135.64
2023-03-17T01:59:52.287Z,100126.43
2023-03-17T02:02:19.948Z,100127.21
2023-03-17T02:04:47.604Z,100126.95
2023-03-17T02:07:15.166Z,100126.13
2023-03-17T02:09:42.818Z,100120.80
2023-03-17T02:12:10.477Z,100114.89
2023-03-17T02:14:38.045Z,100116.31
2023-03-17T02:17:05.699Z,100113.46
2023-03-17T02:19:34.385Z,100108.21
2023-03-17T02:22:02.780Z,100106.39
2023-03-17T02:24:30.945Z,100103.73
2023-03-17T02:26:58.803Z,100103.74
2023-03-17T02:29:27.801Z,100101.60
2023-03-17T02:31:55.465Z,100098.37
2023-03-17T02:34:23.121Z,100100.79
2023-03-17T02:36:50.840Z,100100.29
2023-03-17T02:39:18.551Z,100102.89
2023-03-17T02:41:46.312Z,100099.57
2023-03-17T02:44:13.973Z,100097.70
2023-03-17T02:46:41.736Z,100102.21
2023-03-17T02:49:09.402Z,100102.40
2023-03-17T02:51:37.378Z,100101.16
2023-03-17T02:54:05.032Z,100109.08
2023-03-17T02:56:33.010Z,100109.86
2023-03-17T02:59:00.660Z,100113.97
2023-03-17T03:01:29.641Z,100113.67
2023-03-17T03:03:57.423Z,100113.64
2023-03-17T03:06:25.081Z,100116.11
2023-03-17T03:08:52.743Z,100116.95
2023-03-17T03:11:20.613Z,100123.55
2023-03-17T03:13:48.290Z,100124.28
2023-03-17T03:16:15.865Z,100126.64
2023-03-17T03:18:43.594Z,100134.36
2023-03-17T03:21:11.255Z,100137.76
2023-03-17T03:23:38.932Z,100143.45
2023-03-17T03:26:06.585Z,100139.85
2023-03-17T03:28:34.241Z,100136.21
2023-03-17T03:31:01.948Z,100136.45
2023-03-17T03:33:29.668Z,100137.23
2023-03-17T03:35:58.284Z,100140.04
2023-03-17T03:38:26.326Z,100135.08
2023-03-17T03:40:53.888Z,100133.98
2023-03-17T03:43:23.882Z,100131.99
2023-03-17T03:45:51.919Z,100132.52
2023-03-17T03:48:19.640Z,100132.09
2023-03-17T03:50:47.294Z,100131.16
2023-03-17T03:53:15.471Z,100126.30
2023-03-17T03:55:43.120Z,100127.36
2023-03-17T03:58:11.500Z,100128.00
2023-03-17T04:00:39.158Z,100132.27
2023-03-17T04:03:06.865Z,100129.16
2023-03-17T04:05:34.488Z,100129.01
2023-03-17T04:08:02.151Z,100129.84
2023-03-17T04:10:30.030Z,100128.61
2023-03-17T04:12:57.813Z,100120.47
2023-03-17T04:15:25.440Z,100121.92
2023-03-17T04:17:55.249Z,100128.73
2023-03-17T04:20:22.917Z,100133.05
2023-03-17T04:22:50.683Z,100136.53
2023-03-17T04:25:18.972Z,100134.63
2023-03-17T04:27:46.819Z,100133.02
2023-03-17T04:30:14.805Z,100130.04
2023-03-17T04:32:42.596Z,100130.75
2023-03-17T04:35:11.135Z,100129.83
2023-03-17T04:37:39.106Z,100131.00
2023-03-17T04:40:08.707Z,100138.44
2023-03-17T04:42:36.370Z,100147.32
2023-03-17T04:45:04.143Z,100146.80
2023-03-17T04:47:32.303Z,100147.23
2023-03-17T04:50:00.075Z,100142.41
2023-03-17T04:52:27.835Z,100144.91
2023-03-17T04:54:55.598Z,100145.72
2023-03-17T04:57:24.691Z,100149.64
2023-03-17T04:59:52.412Z,100157.44
2023-03-17T05:02:26.460Z,100168.59
2023-03-17T05:04:54.849Z,100160.35
2023-03-17T05:07:22.610Z,100160.33
2023-03-17T05:09:50.477Z,100162.02
2023-03-17T05:12:18.240Z,100160.01
2023-03-17T05:14:46.824Z,100160.30
2023-03-17T05:17:14.704Z,100162.16
2023-03-17T05:19:42.761Z,100156.69
2023-03-17T05:22:10.731Z,100155.16
2023-03-17T05:24:38.397Z,100159.48
2023-03-17T05:27:06.257Z,100159.83
2023-03-17T05:29:34.023Z,100156.05
2023-03-17T05:32:01.687Z,100162.83
2023-03-17T05:34:29.347Z,100159.59
2023-03-17T05:36:57.210Z,100148.42
2023-03-17T05:39:24.976Z,100150.52
2023-03-17T05:41:52.637Z,100153.30
2023-03-17T05:44:21.019Z,100153.55
2023-03-17T05:46:48.679Z,100152.21
2023-03-17T05:49:16.352Z,100154.81
2023-03-17T05:51:44.003Z,100157.61
2023-03-17T05:54:11.669Z,100156.46
2023-03-17T05:56:39.427Z,100160.30
2023-03-17T05:59:07.089Z,100160.98
2023-03-17T06:01:34.856Z,100155.17
2023-03-17T06:04:02.822Z,100155.86
2023-03-17T06:06:30.485Z,100168.95
2023-03-17T06:08:58.252Z,100182.45
2023-03-17T06:11:26.937Z,100183.83
2023-03-17T06:13:54.800Z,100184.35
2023-03-17T06:16:22.716Z,100185.54
2023-03-17T06:18:50.739Z,100183.84
2023-03-17T06:21:18.920Z,100173.42
2023-03-17T06:23:46.675Z,100170.70
2023-03-17T06:26:14.444Z,100169.71
2023-03-17T06:28:42.105Z,100174.44
2023-03-17T06:31:09.921Z,100181.02
2023-03-17T06:33:38.243Z,100183.47
2023-03-17T06:36:06.677Z,100185.25
2023-03-17T06:38:34.489Z,100187.46
2023-03-17T06:41:02.153Z,100188.09
2023-03-17T06:43:29.913Z,100191.19
2023-03-17T06:45:57.575Z,100195.14
2023-03-17T06:48:25.347Z,100199.18
2023-03-17T06:50:53.104Z,100201.02
2023-03-17T06:53:21.070Z,100207.86
2023-03-17T06:55:48.734Z,100207.84
2023-03-17T06:58:17.316Z,100205.55
2023-03-17T07:00:45.723Z,100202.89
2023-03-17T07:03:13.567Z,100199.48
2023-03-17T07:05:42.044Z,100196.89
2023-03-17T07:08:09.702Z,100190.61
2023-03-17T07:10:37.463Z,100195.88
2023-03-17T07:13:07.895Z,100194.80
2023-03-17T07:15:36.171Z,100192.02
2023-03-17T07:18:04.240Z,100185.80
2023-03-17T07:20:32.032Z,100185.27
2023-03-17T07:22:59.870Z,100183.94
2023-03-17T07:25:27.533Z,100184.27
2023-03-17T07:27:55.196Z,100178.27
2023-03-17T07:30:22.869Z,100182.63
2023-03-17T07:32:50.646Z,100180.05
2023-03-17T07:35:19.568Z,100182.00
2023-03-17T07:37:47.583Z,100179.58
2023-03-17T07:40:15.341Z,100181.82
2023-03-17T07:42:43.007Z,100182.69
2023-03-17T07:45:10.799Z,100179.90
2023-03-17T07:47:39.454Z,100173.99
2023-03-17T07:50:07.113Z,100171.75
2023-03-17T07:52:34.883Z,100172.30
2023-03-17T07:55:02.869Z,100171.27
2023-03-17T07:57:30.633Z,100166.34
2023-03-17T07:59:58.988Z,100162.03
2023-03-17T08:02:26.684Z,100164.59
2023-03-17T08:04:54.517Z,100162.23
2023-03-17T08:07:22.186Z,100159.11
2023-03-17T08:09:50.113Z,100161.30
2023-03-17T08:12:17.818Z,100163.17
2023-03-17T08:14:45.473Z,100172.05
2023-03-17T08:17:13.772Z,100173.40
2023-03-17T08:19:41.512Z,100168.36
2023-03-17T08:22:09.894Z,100168.80
2023-03-17T08:24:38.614Z,100166.80
2023-03-17T08:27:06.355Z,100165.48
2023-03-17T08:29:34.121Z,100164.03
2023-03-17T08:32:01.882Z,100162.85
2023-03-17T08:34:29.529Z,100160.15
2023-03-17T08:36:57.605Z,100156.36
2023-03-17T08:39:25.572Z,100152.09
2023-03-17T08:41:53.238Z,100150.02
2023-03-17T08:44:22.017Z,100149.69
2023-03-17T08:46:49.782Z,100155.10
2023-03-17T08:49:17.651Z,100157.74
2023-03-17T08:51:45.451Z,100160.02
2023-03-17T08:54:13.180Z,100157.96
2023-03-17T08:56:40.859Z,100161.42
2023-03-17T08:59:08.720Z,100159.06
2023-03-17T09:01:36.409Z,100157.60
2023-03-17T09:04:04.234Z,100154.54
2023-03-17T09:06:32.365Z,100155.79
2023-03-17T09:09:00.598Z,100153.78
2023-03-17T09:11:28.243Z,100152.30
2023-03-17T09:13:56.006Z,100156.02
2023-03-17T09:16:24.251Z,100151.57
2023-03-17T09:18:52.155Z,100150.91
2023-03-17T09:21:19.812Z,100148.90
2023-03-17T09:23:47.509Z,100151.17
2023-03-17T09:26:15.444Z,100150.31
2023-03-17T09:28:43.753Z,100151.14
2023-03-17T09:31:11.614Z,100154.59
2023-03-17T09:33:39.870Z,100156.19
2023-03-17T09:36:07.664Z,100153.96
2023-03-17T09:38:36.002Z,100153.60
2023-03-17T09:41:03.667Z,100149.73
2023-03-17T09:43:31.433Z,100147.38
2023-03-17T09:45:59.087Z,100142.52
2023-03-17T09:48:27.569Z,100142.93
2023-03-17T09:50:55.238Z,100140.89
2023-03-17T09:53:22.897Z,100133.34
2023-03-17T09:55:50.656Z,100128.00
2023-03-17T09:58:18.419Z,100126.78
2023-03-17T10:00:46.595Z,100130.79
2023-03-17T10:03:14.666Z,100129.07
2023-03-17T10:05:42.374Z,100125.95
2023-03-17T10:08:27.070Z,100119.10
2023-03-17T10:10:57.617Z,100119.66
2023-03-17T10:13:25.468Z,100113.42
2023-03-17T10:15:53.275Z,100108.36
2023-03-17T10:18:22.237Z,100108.67
2023-03-17T10:20:51.664Z,100102.89
2023-03-17T10:23:19.620Z,100101.41
2023-03-17T10:25:48.396Z,100102.36
2023-03-17T10:28:16.248Z,100098.86
2023-03-17T10:30:44.129Z,100093.40
2023-03-17T10:33:12.819Z,100088.77
2023-03-17T10:35:40.930Z,100083.76
2023-03-17T10:38:14.348Z,100080.84
2023-03-17T10:40:42.972Z,100078.52
2023-03-17T10:43:11.349Z,100077.23
2023-03-17T10:45:43.308Z,100071.75
2023-03-17T10:48:12.509Z,100063.09
2023-03-17T10:50:41.304Z,100049.94
2023-03-17T10:53:08.959Z,100047.46
2023-03-17T10:55:37.239Z,100043.55
2023-03-17T10:58:05.005Z,100042.75
2023-03-17T11:00:35.602Z,100043.33
2023-03-17T11:03:03.517Z,100040.44
2023-03-17T11:05:31.476Z,100037.33
2023-03-17T11:07:59.231Z,100035.98
2023-03-17T11:10:26.897Z,100032.88
2023-03-17T11:12:54.557Z,100032.36
2023-03-17T11:15:23.037Z,100035.67
2023-03-17T11:17:50.800Z,100032.92
2023-03-17T11:20:18.461Z,100032.08
2023-03-17T11:22:46.739Z,100027.23
2023-03-17T11:25:14.402Z,100018.91
2023-03-17T11:27:42.471Z,100018.41
2023-03-17T11:30:11.236Z,100017.79
2023-03-17T11:32:39.990Z,100015.56
2023-03-17T11:35:07.914Z,100013.15
2023-03-17T11:37:36.264Z,100006.56
2023-03-17T11:40:04.256Z,100007.43
2023-03-17T11:42:32.134Z,100004.85
2023-03-17T11:44:59.906Z,99998.92
2023-03-17T11:47:28.580Z,99995.29
2023-03-17T11:49:56.243Z,99993.92
2023-03-17T11:52:24.014Z,99989.91
2023-03-17T11:54:54.183Z,99991.00
2023-03-17T11:57:23.020Z,99985.10
2023-03-17T11:59:52.277Z,99986.02
2023-03-17T12:02:19.970Z,99981.40
2023-03-17T12:04:47.785Z,99979.73
2023-03-17T12:07:15.601Z,99978.00
2023-03-17T12:09:43.572Z,99973.32
2023-03-17T12:12:11.433Z,99976.66
2023-03-17T12:14:39.843Z,99971.98
2023-03-17T12:17:07.577Z,99967.63
2023-03-17T12:19:37.081Z,99966.08
2023-03-17T12:22:04.743Z,99958.95
2023-03-17T12:24:32.815Z,99957.92
2023-03-17T12:27:00.792Z,99953.55
2023-03-17T12:29:28.544Z,99948.52
2023-03-17T12:31:56.207Z,99946.26
2023-03-17T12:34:24.382Z,99944.52
2023-03-17T12:36:52.453Z,99937.55
2023-03-17T12:39:20.217Z,99933.55
2023-03-17T12:41:48.187Z,99935.45
2023-03-17T12:44:16.052Z,99937.00
2023-03-17T12:46:43.885Z,99930.74
2023-03-17T12:49:11.678Z,99930.21
2023-03-17T12:51:40.161Z,99933.20
2023-03-17T12:54:07.821Z,99933.02
2023-03-17T12:56:35.503Z,99929.71
2023-03-17T12:59:03.762Z,99927.45
2023-03-17T13:01:32.574Z,99923.27
2023-03-17T13:04:00.512Z,99923.61
2023-03-17T13:06:28.342Z,99919.93
2023-03-17T13:08:56.044Z,99918.02
2023-03-17T13:11:23.704Z,99916.45
2023-03-17T13:13:52.392Z,99906.88
2023-03-17T13:16:20.113Z,99899.55
2023-03-17T13:18:48.131Z,99898.33
2023-03-17T13:21:16.504Z,99895.38
2023-03-17T13:23:44.345Z,99893.13
2023-03-17T13:26:12.035Z,99897.33
2023-03-17T13:28:41.435Z,99893.85
2023-03-17T13:31:10.297Z,99892.64
2023-03-17T13:33:38.912Z,99891.08
2023-03-17T13:36:06.607Z,99892.48
2023-03-17T13:38:34.336Z,99886.21
2023-03-17T13:41:01.994Z,99879.77
2023-03-17T13:43:30.284Z,99881.85
2023-03-17T13:45:57.932Z,99878.02
2023-03-17T13:48:27.446Z,99874.88
2023-03-17T13:50:55.102Z,99880.64
2023-03-17T13:53:23.888Z,99884.29
2023-03-17T13:55:53.033Z,99882.55
2023-03-17T13:58:20.741Z,99872.61
2023-03-17T14:00:49.233Z,99859.85
2023-03-17T14:03:17.603Z,99850.23
2023-03-17T14:05:45.782Z,99844.13
2023-03-17T14:08:14.260Z,99846.54
2023-03-17T14:10:43.662Z,99846.35
2023-03-17T14:13:11.531Z,99840.05
2023-03-17T14:15:42.261Z,99840.23
2023-03-17T14:18:11.257Z,99842.85
2023-03-17T14:20:39.021Z,99844.93
2023-03-17T14:23:06.802Z,99847.17
2023-03-17T14:25:34.547Z,99839.86
2023-03-17T14:28:02.214Z,99835.84
2023-03-17T14:30:30.824Z,99836.88
2023-03-17T14:32:58.597Z,99838.44
2023-03-17T14:35:26.524Z,99837.07
2023-03-17T14:37:54.288Z,99836.74
2023-03-17T14:40:22.467Z,99839.40
2023-03-17T14:42:50.417Z,99842.05
2023-03-17T14:45:18.093Z,99841.90
2023-03-17T14:47:45.763Z,99840.52
2023-03-17T14:50:13.635Z,99838.94
2023-03-17T14:52:41.694Z,99835.11
2023-03-17T14:55:09.559Z,99819.76
2023-03-17T14:57:37.205Z,99811.92
2023-03-17T15:00:05.295Z,99814.70
2023-03-17T15:02:34.582Z,99816.62
2023-03-17T15:05:02.429Z,99815.73
2023-03-17T15:07:30.222Z,99822.70
2023-03-17T15:09:58.090Z,99830.02
2023-03-17T15:12:25.956Z,99830.90
2023-03-17T15:14:53.721Z,99827.76
2023-03-17T15:17:21.383Z,99828.09
2023-03-17T15:19:49.174Z,99822.52
2023-03-17T15:22:16.911Z,99825.81
2023-03-17T15:24:44.776Z,99822.84
2023-03-17T15:27:12.428Z,99818.65
2023-03-17T15:29:40.101Z,99815.50
2023-03-17T15:32:07.864Z,99813.56
2023-03-17T15:34:35.527Z,99805.35
2023-03-17T15:37:03.192Z,99803.05
2023-03-17T15:39:30.849Z,99797.42
2023-03-17T15:41:58.614Z,99792.66
2023-03-17T15:44:26.582Z,99796.97
2023-03-17T15:46:54.549Z,99798.14
2023-03-17T15:49:25.253Z,99800.89
2023-03-17T15:51:54.488Z,99797.90
2023-03-17T15:54:22.445Z,99790.73
2023-03-17T15:56:50.130Z,99788.96
2023-03-17T15:59:17.885Z,99789.64
2023-03-17T16:01:45.785Z,99788.70
2023-03-17T16:04:13.881Z,99788.83
2023-03-17T16:06:42.088Z,99793.30
2023-03-17T16:09:09.749Z,99793.76
2023-03-17T16:11:39.403Z,99794.91
2023-03-17T16:14:08.013Z,99794.88
2023-03-17T16:16:36.109Z,99794.65
2023-03-17T16:19:05.006Z,99797.89
2023-03-17T16:21:32.659Z,99798.17
2023-03-17T16:24:00.427Z,99796.36
2023-03-17T16:26:28.229Z,99793.69
2023-03-17T16:28:56.055Z,99788.27
2023-03-17T16:31:24.057Z,99788.55
2023-03-17T16:33:52.950Z,99786.41
2023-03-17T16:36:20.887Z,99789.83
2023-03-17T16:38:49.368Z,99788.20
2023-03-17T16:41:17.335Z,99792.14
2023-03-17T16:43:45.202Z,99788.45
2023-03-17T16:46:12.902Z,99792.39
2023-03-17T16:48:40.732Z,99794.73
2023-03-17T16:51:08.699Z,99794.32
2023-03-17T16:53:36.467Z,99797.36
2023-03-17T16:56:04.230Z,99791.19
2023-03-17T16:58:31.905Z,99791.64
2023-03-17T17:01:02.320Z,99789.98
2023-03-17T17:03:30.087Z,99785.88
2023-03-17T17:05:57.848Z,99784.22
2023-03-17T17:08:25.612Z,99785.02
2023-03-17T17:10:53.373Z,99784.43
2023-03-17T17:13:21.041Z,99784.16
2023-03-17T17:15:48.840Z,99786.89
2023-03-17T17:18:16.670Z,99784.38
2023-03-17T17:20:44.326Z,99786.20
2023-03-17T17:23:11.998Z,99789.41
2023-03-17T17:25:39.754Z,99787.77
2023-03-17T17:28:07.418Z,99786.80
2023-03-17T17:30:35.077Z,99781.03
2023-03-17T17:33:02.877Z,99781.30
2023-03-17T17:35:32.509Z,99779.30
2023-03-17T17:38:00.827Z,99774.52
2023-03-17T17:40:29.099Z,99781.36
2023-03-17T17:42:58.095Z,99782.66
2023-03-17T17:45:26.299Z,99778.77
2023-03-17T17:47:54.035Z,99784.05
2023-03-17T17:50:21.700Z,99788.98
2023-03-17T17:52:49.462Z,99792.02
2023-03-17T17:55:17.222Z,99795.53
2023-03-17T17:57:44.988Z,99804.84
2023-03-17T18:00:12.750Z,99810.52
2023-03-17T18:02:40.520Z,99815.48
2023-03-17T18:05:09.195Z,99814.70
2023-03-17T18:07:36.872Z,99812.50
2023-03-17T18:10:04.623Z,99809.09
2023-03-17T18:12:32.284Z,99803.10
2023-03-17T18:15:00.056Z,99803.52
2023-03-17T18:17:28.247Z,99809.83
2023-03-17T18:19:57.406Z,99813.92
2023-03-17T18:22:25.183Z,99816.13
2023-03-17T18:24:53.459Z,99817.80
2023-03-17T18:27:21.530Z,99815.30
2023-03-17T18:29:49.294Z,99816.80
2023-03-17T18:32:16.959Z,99816.20
2023-03-17T18:34:44.826Z,99813.48
2023-03-17T18:37:12.691Z,99816.17
2023-03-17T18:39:41.165Z,99819.57
2023-03-17T18:42:08.839Z,99820.73
2023-03-17T18:44:36.554Z,99826.21
2023-03-17T18:47:04.257Z,99824.90
2023-03-17T18:49:32.028Z,99825.81
2023-03-17T18:51:59.994Z,99828.60
2023-03-17T18:54:27.866Z,99822.65
2023-03-17T18:56:56.029Z,99824.85
2023-03-17T18:59:23.896Z,99827.18
2023-03-17T19:01:51.564Z,99821.75
2023-03-17T19:04:19.321Z,99816.99
2023-03-17T19:06:47.192Z,99811.66
2023-03-17T19:09:14.957Z,99811.03
2023-03-17T19:11:43.124Z,99814.23
2023-03-17T19:14:12.120Z,99808.08
2023-03-17T19:16:40.444Z,99808.55
2023-03-17T19:19:08.269Z,99802.55
2023-03-17T19:21:36.022Z,99798.16
2023-03-17T19:24:05.127Z,99795.13
2023-03-17T19:26:33.808Z,99795.95
2023-03-17T19:29:02.329Z,99801.57
2023-03-17T19:31:30.357Z,99800.81
2023-03-17T19:33:58.016Z,99806.96
2023-03-17T19:36:26.292Z,99805.21
2023-03-17T19:38:54.058Z,99805.67
2023-03-17T19:41:21.824Z,99805.06
2023-03-17T19:43:49.484Z,99806.06
2023-03-17T19:46:17.613Z,99802.91
2023-03-17T19:48:45.731Z,99802.37
2023-03-17T19:51:13.619Z,99803.70
2023-03-17T19:53:41.568Z,99800.35
2023-03-17T19:56:11.179Z,99796.30
2023-03-17T19:58:39.251Z,99798.66
2023-03-17T20:01:07.783Z,99798.36
2023-03-17T20:03:35.693Z,99794.31
2023-03-17T20:06:06.338Z,99792.37
2023-03-17T20:08:34.088Z,99790.21
2023-03-17T20:11:02.261Z,99791.35
2023-03-17T20:13:29.926Z,99788.40
2023-03-17T20:15:57.808Z,99787.50
2023-03-17T20:18:25.870Z,99782.14
2023-03-17T20:20:53.642Z,99780.20
2023-03-17T20:23:21.901Z,99778.45
2023-03-17T20:25:49.869Z,99779.98
2023-03-17T20:28:17.745Z,99779.77
2023-03-17T20:30:45.525Z,99782.00
2023-03-17T20:33:13.366Z,99776.95
2023-03-17T20:35:41.441Z,99775.16
2023-03-17T20:38:09.305Z,99773.55
2023-03-17T20:40:36.966Z,99773.85
2023-03-17T20:43:04.630Z,99768.52
2023-03-17T20:45:32.698Z,99770.38
2023-03-17T20:48:01.079Z,99772.78
2023-03-17T20:50:31.441Z,99776.19
2023-03-17T20:52:59.371Z,99771.01
2023-03-17T20:55:27.034Z,99772.82
2023-03-17T20:57:54.806Z,99776.71
2023-03-17T21:00:22.561Z,99770.59
2023-03-17T21:02:50.895Z,99770.21
2023-03-17T21:05:19.935Z,99770.90
2023-03-17T21:07:48.107Z,99772.80
2023-03-17T21:10:15.880Z,99773.98
2023-03-17T21:12:44.286Z,99771.65
2023-03-17T21:15:16.082Z,99762.30
2023-03-17T21:17:51.224Z,99761.55
2023-03-17T21:20:23.942Z,99758.84
2023-03-17T21:22:52.947Z,99758.05
2023-03-17T21:25:20.679Z,99756.15
2023-03-17T21:27:49.160Z,99755.40
2023-03-17T21:30:16.825Z,99751.85
2023-03-17T21:32:44.550Z,99749.86
2023-03-17T21:35:12.451Z,99747.75
2023-03-17T21:37:40.220Z,99742.85
2023-03-17T21:40:08.193Z,99742.46
2023-03-17T21:42:35.947Z,99742.45
2023-03-17T21:45:03.615Z,99742.77
2023-03-17T21:47:31.475Z,99738.08
2023-03-17T21:49:59.241Z,99737.18
2023-03-17T21:52:27.208Z,99729.70
2023-03-17T21:54:54.978Z,99729.13
2023-03-17T21:57:23.048Z,99735.50
2023-03-17T21:59:51.012Z,99738.04
2023-03-17T22:02:18.888Z,99738.58
2023-03-17T22:04:47.260Z,99741.50
2023-03-17T22:07:14.920Z,99737.45
2023-03-17T22:09:42.694Z,99740.21
2023-03-17T22:12:10.450Z,99740.55
2023-03-17T22:14:38.212Z,99741.52
2023-03-17T22:17:05.980Z,99741.85
2023-03-17T22:19:33.844Z,99738.77
2023-03-17T22:22:02.531Z,99740.81
2023-03-17T22:24:31.831Z,99742.15
2023-03-17T22:26:59.592Z,99737.92
2023-03-17T22:29:27.260Z,99737.98
2023-03-17T22:31:55.071Z,99740.36
2023-03-17T22:34:23.705Z,99738.48
2023-03-17T22:36:51.597Z,99738.65
2023-03-17T22:39:19.338Z,99739.58
2023-03-17T22:41:47.107Z,99741.48
2023-03-17T22:44:14.765Z,99740.16
2023-03-17T22:46:42.527Z,99738.91
2023-03-17T22:49:10.296Z,99739.41
2023-03-17T22:51:38.365Z,99735.97
2023-03-17T22:54:06.742Z,99733.54
2023-03-17T22:56:34.410Z,99731.61
2023-03-17T22:59:02.199Z,99730.32
2023-03-17T23:01:31.968Z,99728.18
2023-03-17T23:03:59.790Z,99730.06
2023-03-17T23:06:27.448Z,99731.24
2023-03-17T23:08:55.172Z,99724.79
2023-03-17T23:11:23.348Z,99726.75
2023-03-17T23:13:51.632Z,99723.63
2023-03-17T23:16:20.833Z,99724.61
2023-03-17T23:18:49.091Z,99725.77
2023-03-17T23:21:17.371Z,99721.85
2023-03-17T23:23:45.446Z,99724.55
2023-03-17T23:26:13.416Z,99719.86
2023-03-17T23:28:41.171Z,99719.14
2023-03-17T23:31:09.273Z,99713.16
2023-03-17T23:33:37.521Z,99714.38
2023-03-17T23:36:05.408Z,99713.66
2023-03-17T23:38:34.596Z,99713.85
2023-03-17T23:41:02.959Z,99712.21
2023-03-17T23:43:31.033Z,99708.72
2023-03-17T23:45:59.870Z,99704.38
2023-03-17T23:48:27.682Z,99699.73
2023-03-17T23:50:55.551Z,99699.17
2023-03-17T23:53:23.620Z,99695.89
2023-03-17T23:55:51.794Z,99694.79
2023-03-17T23:58:19.661Z,99693.20
